createdAt,value
2017-12-04T00:02:05.158Z,11.43
2017-12-04T00:04:33.389Z,12.40
2017-12-04T00:07:00.863Z,12.80
2017-12-04T00:09:28.326Z,11.93
2017-12-04T00:11:55.806Z,13.10
2017-12-04T00:14:23.261Z,11.90
2017-12-04T00:16:51.534Z,12.13
2017-12-04T00:19:18.996Z,11.23
2017-12-04T00:21:46.466Z,12.20
2017-12-04T00:24:14.708Z,11.93
2017-12-04T00:26:42.180Z,11.03
2017-12-04T00:29:09.762Z,9.60
2017-12-04T00:31:37.999Z,9.70
2017-12-04T00:34:05.491Z,9.20
2017-12-04T00:36:33.734Z,9.90
2017-12-04T00:39:01.218Z,11.57
2017-12-04T00:41:28.687Z,10.23
2017-12-04T00:43:56.984Z,11.47
2017-12-04T00:46:24.458Z,9.07
2017-12-04T00:48:52.123Z,12.83
2017-12-04T00:51:19.607Z,11.70
2017-12-04T00:53:47.350Z,10.87
2017-12-04T00:56:14.846Z,15.03
2017-12-04T00:58:42.307Z,13.30
2017-12-04T01:01:09.790Z,15.33
2017-12-04T01:03:38.030Z,12.00
2017-12-04T01:06:05.494Z,15.60
2017-12-04T01:08:32.981Z,12.30
2017-12-04T01:11:01.218Z,11.60
2017-12-04T01:13:28.683Z,10.83
2017-12-04T01:15:56.160Z,11.27
2017-12-04T01:18:24.393Z,10.47
2017-12-04T01:20:51.897Z,11.17
2017-12-04T01:23:19.372Z,9.87
2017-12-04T01:25:47.879Z,9.60
2017-12-04T01:28:15.355Z,9.33
2017-12-04T01:30:42.818Z,11.70
2017-12-04T01:33:10.299Z,11.43
2017-12-04T01:35:37.761Z,12.50
2017-12-04T01:38:05.263Z,14.60
2017-12-04T01:40:32.727Z,11.50
2017-12-04T01:43:00.203Z,11.60
2017-12-04T01:45:27.680Z,12.70
2017-12-04T01:47:55.138Z,9.50
2017-12-04T01:50:22.603Z,10.17
2017-12-04T01:52:50.082Z,9.67
2017-12-04T01:55:18.311Z,9.73
2017-12-04T01:57:45.790Z,10.13
2017-12-04T02:00:13.258Z,12.13
2017-12-04T02:02:40.755Z,10.43
2017-12-04T02:05:08.223Z,12.27
2017-12-04T02:07:35.689Z,12.03
2017-12-04T02:10:03.158Z,10.93
2017-12-04T02:12:30.635Z,12.27
2017-12-04T02:14:58.166Z,12.67
2017-12-04T02:17:26.369Z,12.43
2017-12-04T02:19:53.827Z,13.23
2017-12-04T02:22:21.335Z,13.37
2017-12-04T02:24:49.571Z,12.27
2017-12-04T02:27:17.030Z,10.20
2017-12-04T02:29:44.527Z,10.47
2017-12-04T02:32:11.995Z,12.47
2017-12-04T02:34:39.459Z,13.33
2017-12-04T02:37:06.931Z,13.20
2017-12-04T02:39:34.414Z,13.10
2017-12-04T02:42:01.875Z,10.90
2017-12-04T02:44:29.354Z,10.73
2017-12-04T02:46:57.606Z,10.70
2017-12-04T02:49:25.844Z,10.97
2017-12-04T02:51:53.306Z,11.60
2017-12-04T02:54:20.791Z,10.47
2017-12-04T02:56:48.250Z,9.50
2017-12-04T02:59:16.086Z,10.30
2017-12-04T03:01:43.573Z,11.43
2017-12-04T03:04:11.818Z,12.50
2017-12-04T03:06:39.309Z,11.37
2017-12-04T03:09:06.815Z,10.40
2017-12-04T03:11:35.062Z,11.13
2017-12-04T03:14:02.536Z,10.63
2017-12-04T03:16:30.782Z,10.23
2017-12-04T03:18:58.240Z,10.47
2017-12-04T03:21:25.715Z,11.43
2017-12-04T03:23:53.201Z,12.50
2017-12-04T03:26:21.445Z,10.80
2017-12-04T03:28:48.916Z,10.57
2017-12-04T03:31:17.182Z,10.50
2017-12-04T03:33:44.638Z,8.73
2017-12-04T03:36:12.113Z,9.17
2017-12-04T03:38:40.347Z,7.40
2017-12-04T03:41:07.926Z,7.40
2017-12-04T03:43:35.403Z,8.07
2017-12-04T03:46:02.875Z,7.20
2017-12-04T03:48:31.112Z,5.70
2017-12-04T03:50:58.598Z,6.33
2017-12-04T03:53:26.071Z,6.67
2017-12-04T03:55:54.308Z,6.57
2017-12-04T03:58:21.788Z,7.07
2017-12-04T04:00:49.258Z,6.80
2017-12-04T04:03:17.487Z,7.53
2017-12-04T04:05:44.966Z,7.33
2017-12-04T04:08:12.437Z,8.60
2017-12-04T04:10:39.907Z,8.87
2017-12-04T04:13:08.136Z,9.37
2017-12-04T04:15:35.606Z,9.47
2017-12-04T04:18:03.081Z,8.47
2017-12-04T04:20:30.543Z,8.70
2017-12-04T04:22:58.024Z,8.37
2017-12-04T04:25:26.255Z,8.33
2017-12-04T04:27:53.727Z,8.50
2017-12-04T04:30:21.237Z,9.20
2017-12-04T04:32:48.698Z,8.30
2017-12-04T04:35:16.172Z,8.83
2017-12-04T04:37:44.423Z,8.20
2017-12-04T04:40:11.885Z,8.20
2017-12-04T04:42:39.366Z,8.13
2017-12-04T04:45:06.832Z,6.93
2017-12-04T04:47:34.311Z,8.57
2017-12-04T04:50:01.780Z,7.80
2017-12-04T04:52:29.262Z,7.70
2017-12-04T04:54:56.743Z,7.30
2017-12-04T04:57:24.245Z,7.90
2017-12-04T04:59:51.712Z,8.10
2017-12-04T05:02:19.195Z,7.20
2017-12-04T05:04:47.418Z,7.73
2017-12-04T05:07:14.901Z,8.77
2017-12-04T05:09:42.367Z,7.73
2017-12-04T05:12:10.612Z,8.10
2017-12-04T05:14:38.080Z,7.77
2017-12-04T05:17:05.567Z,7.37
2017-12-04T05:19:33.792Z,7.37
2017-12-04T05:22:01.267Z,7.90
2017-12-04T05:24:28.730Z,8.23
2017-12-04T05:26:56.227Z,8.03
2017-12-04T05:29:24.451Z,9.33
2017-12-04T05:31:51.920Z,7.10
2017-12-04T05:34:19.386Z,7.20
2017-12-04T05:36:46.856Z,7.80
2017-12-04T05:39:14.326Z,8.37
2017-12-04T05:41:42.555Z,6.10
2017-12-04T05:44:10.030Z,9.17
2017-12-04T05:46:37.490Z,8.20
2017-12-04T05:49:04.967Z,7.93
2017-12-04T05:51:33.191Z,5.60
2017-12-04T05:54:00.667Z,6.20
2017-12-04T05:56:28.176Z,7.67
2017-12-04T05:58:56.433Z,8.03
2017-12-04T06:01:23.907Z,6.63
2017-12-04T06:03:52.160Z,8.97
2017-12-04T06:06:19.626Z,8.33
2017-12-04T06:08:47.876Z,7.60
2017-12-04T06:11:15.343Z,8.97
2017-12-04T06:13:42.823Z,8.60
2017-12-04T06:16:11.064Z,7.67
2017-12-04T06:18:38.540Z,9.60
2017-12-04T06:21:06.019Z,8.53
2017-12-04T06:23:34.264Z,8.93
2017-12-04T06:26:01.730Z,7.60
2017-12-04T06:28:29.204Z,8.33
2017-12-04T06:30:56.680Z,7.03
2017-12-04T06:33:24.922Z,8.03
2017-12-04T06:35:52.399Z,6.60
2017-12-04T06:38:19.866Z,7.17
2017-12-04T06:40:48.104Z,8.47
2017-12-04T06:43:15.573Z,8.07
2017-12-04T06:45:43.042Z,7.33
2017-12-04T06:48:10.512Z,7.50
2017-12-04T06:50:38.763Z,7.67
2017-12-04T06:53:06.232Z,6.00
2017-12-04T06:55:33.706Z,5.27
2017-12-04T06:58:01.956Z,7.43
2017-12-04T07:00:29.451Z,6.40
2017-12-04T07:02:57.678Z,6.80
2017-12-04T07:05:25.151Z,6.70
2017-12-04T07:07:52.623Z,6.83
2017-12-04T07:10:20.099Z,6.50
2017-12-04T07:12:48.328Z,6.13
2017-12-04T07:15:15.803Z,6.47
2017-12-04T07:17:43.280Z,6.80
2017-12-04T07:20:11.539Z,6.40
2017-12-04T07:22:39.004Z,5.37
2017-12-04T07:25:06.477Z,6.87
2017-12-04T07:27:34.703Z,6.77
2017-12-04T07:30:02.187Z,5.33
2017-12-04T07:32:29.672Z,5.03
2017-12-04T07:34:57.906Z,5.50
2017-12-04T07:37:25.377Z,6.07
2017-12-04T07:39:52.875Z,7.27
2017-12-04T07:42:21.108Z,5.80
2017-12-04T07:44:48.573Z,7.57
2017-12-04T07:47:16.051Z,5.63
2017-12-04T07:49:44.295Z,6.20
2017-12-04T07:52:11.774Z,5.60
2017-12-04T07:54:39.234Z,5.63
2017-12-04T07:57:06.721Z,5.53
2017-12-04T07:59:34.187Z,5.63
2017-12-04T08:02:01.660Z,6.83
2017-12-04T08:04:29.138Z,4.80
2017-12-04T08:06:57.374Z,5.43
2017-12-04T08:09:24.852Z,5.67
2017-12-04T08:11:52.328Z,5.27
2017-12-04T08:14:19.832Z,5.40
2017-12-04T08:16:47.291Z,4.60
2017-12-04T08:19:15.531Z,5.23
2017-12-04T08:21:43.035Z,5.80
2017-12-04T08:24:10.498Z,3.77
2017-12-04T08:26:37.975Z,4.00
2017-12-04T08:29:05.445Z,5.43
2017-12-04T08:31:32.919Z,4.90
2017-12-04T08:34:00.383Z,4.67
2017-12-04T08:36:27.878Z,4.80
2017-12-04T08:38:56.114Z,4.00
2017-12-04T08:41:23.579Z,4.77
2017-12-04T08:43:51.055Z,4.83
2017-12-04T08:46:18.547Z,3.90
2017-12-04T08:48:46.015Z,4.13
2017-12-04T08:51:13.479Z,5.60
2017-12-04T08:53:40.960Z,3.93
2017-12-04T08:56:08.433Z,3.20
2017-12-04T08:58:35.913Z,3.30
2017-12-04T09:01:04.165Z,2.93
2017-12-04T09:03:31.627Z,3.27
2017-12-04T09:05:59.086Z,4.33
2017-12-04T09:08:26.558Z,3.37
2017-12-04T09:10:54.850Z,2.97
2017-12-04T09:13:22.277Z,2.90
2017-12-04T09:15:49.752Z,2.50
2017-12-04T09:18:17.999Z,3.60
2017-12-04T09:20:45.461Z,3.93
2017-12-04T09:23:12.940Z,3.57
2017-12-04T09:25:40.395Z,4.00
2017-12-04T09:28:07.880Z,4.33
2017-12-04T09:30:35.347Z,4.27
2017-12-04T09:33:02.831Z,4.20
2017-12-04T09:35:30.293Z,4.60
2017-12-04T09:37:57.775Z,5.37
2017-12-04T09:40:25.243Z,5.70
2017-12-04T09:42:52.720Z,5.57
2017-12-04T09:45:20.959Z,4.73
2017-12-04T09:47:48.430Z,5.27
2017-12-04T09:50:15.970Z,4.50
2017-12-04T09:52:44.162Z,4.10
2017-12-04T09:55:11.629Z,4.30
2017-12-04T09:57:39.106Z,5.30
2017-12-04T10:00:07.346Z,4.33
2017-12-04T10:02:34.839Z,4.47
2017-12-04T10:05:03.119Z,4.33
2017-12-04T10:07:30.551Z,3.53
2017-12-04T10:09:58.035Z,4.47
2017-12-04T10:12:26.264Z,3.33
2017-12-04T10:14:53.742Z,2.90
2017-12-04T10:17:21.215Z,3.43
2017-12-04T10:19:49.467Z,4.10
2017-12-04T10:22:16.931Z,2.83
2017-12-04T10:24:44.409Z,3.07
2017-12-04T10:27:12.635Z,2.03
2017-12-04T10:29:40.105Z,3.13
2017-12-04T10:32:07.591Z,3.63
2017-12-04T10:34:35.063Z,3.63
2017-12-04T10:37:03.299Z,7.97
2017-12-04T10:39:30.775Z,7.37
2017-12-04T10:41:58.238Z,7.57
2017-12-04T10:44:25.723Z,5.93
2017-12-04T10:46:53.957Z,4.57
2017-12-04T10:49:21.436Z,5.23
2017-12-04T10:51:48.892Z,3.83
2017-12-04T10:54:16.364Z,3.37
2017-12-04T10:56:44.595Z,3.23
2017-12-04T10:59:12.079Z,2.63
2017-12-04T11:01:39.541Z,4.70
2017-12-04T11:04:07.036Z,3.13
2017-12-04T11:06:34.511Z,2.80
2017-12-04T11:09:01.983Z,3.70
2017-12-04T11:11:29.443Z,3.60
2017-12-04T11:13:56.922Z,3.27
2017-12-04T11:16:24.395Z,3.67
2017-12-04T11:18:51.870Z,3.20
2017-12-04T11:21:20.115Z,4.10
2017-12-04T11:23:47.582Z,4.50
2017-12-04T11:26:15.055Z,4.40
2017-12-04T11:28:43.295Z,3.50
2017-12-04T11:31:10.771Z,4.50
2017-12-04T11:33:38.232Z,4.07
2017-12-04T11:36:05.704Z,3.67
2017-12-04T11:38:33.930Z,4.10
2017-12-04T11:41:01.406Z,4.10
2017-12-04T11:43:28.891Z,3.80
2017-12-04T11:45:56.360Z,4.10
2017-12-04T11:48:24.611Z,3.30
2017-12-04T11:50:52.092Z,3.00
2017-12-04T11:53:20.332Z,3.93
2017-12-04T11:55:47.810Z,3.63
2017-12-04T11:58:15.282Z,3.70
2017-12-04T12:00:43.576Z,3.73
2017-12-04T12:03:11.091Z,3.27
2017-12-04T12:05:38.592Z,4.17
2017-12-04T12:08:06.059Z,3.90
2017-12-04T12:10:33.540Z,3.40
2017-12-04T12:13:01.008Z,3.70
2017-12-04T12:15:28.487Z,4.10
2017-12-04T12:17:55.951Z,3.63
2017-12-04T12:20:23.432Z,2.57
2017-12-04T12:22:51.666Z,4.03
2017-12-04T12:25:19.159Z,3.20
2017-12-04T12:27:46.624Z,3.60
2017-12-04T12:30:14.850Z,2.43
2017-12-04T12:32:42.335Z,3.60
2017-12-04T12:35:09.833Z,2.80
2017-12-04T12:37:38.094Z,2.60
2017-12-04T12:40:06.327Z,2.60
2017-12-04T12:42:33.836Z,3.00
2017-12-04T12:45:02.067Z,2.63
2017-12-04T12:47:29.588Z,2.83
2017-12-04T12:49:57.047Z,3.30
2017-12-04T12:52:24.566Z,2.50
2017-12-04T12:54:51.996Z,2.70
2017-12-04T12:57:19.472Z,2.23
2017-12-04T12:59:46.944Z,3.07
2017-12-04T13:02:14.431Z,3.33
2017-12-04T13:04:41.916Z,2.20
2017-12-04T13:07:09.422Z,3.47
2017-12-04T13:09:36.895Z,3.77
2017-12-04T13:12:05.157Z,3.20
2017-12-04T13:14:32.980Z,4.37
2017-12-04T13:17:00.469Z,3.30
2017-12-04T13:19:27.931Z,2.73
2017-12-04T13:21:55.403Z,3.50
2017-12-04T13:24:23.644Z,3.47
2017-12-04T13:26:51.123Z,2.80
2017-12-04T13:29:18.600Z,2.67
2017-12-04T13:31:51.670Z,2.93
2017-12-04T13:34:27.789Z,2.60
2017-12-04T13:36:55.263Z,2.60
2017-12-04T13:39:22.720Z,3.60
2017-12-04T13:41:50.199Z,3.10
2017-12-04T13:44:17.674Z,2.67
2017-12-04T13:46:45.920Z,3.20
2017-12-04T13:49:13.390Z,2.73
2017-12-04T13:51:40.866Z,3.07
2017-12-04T13:54:09.108Z,3.40
2017-12-04T13:56:36.952Z,3.53
2017-12-04T13:59:04.416Z,2.80
2017-12-04T14:01:31.913Z,2.40
2017-12-04T14:03:59.388Z,3.50
2017-12-04T14:06:27.618Z,2.50
2017-12-04T14:08:55.092Z,3.30
2017-12-04T14:11:22.563Z,3.23
2017-12-04T14:13:50.039Z,3.00
2017-12-04T14:16:18.283Z,2.93
2017-12-04T14:18:45.755Z,2.77
2017-12-04T14:21:13.240Z,2.90
2017-12-04T14:23:41.483Z,2.63
2017-12-04T14:26:08.951Z,2.80
2017-12-04T14:28:36.423Z,3.87
2017-12-04T14:31:04.656Z,2.63
2017-12-04T14:33:32.131Z,2.87
2017-12-04T14:35:59.603Z,2.50
2017-12-04T14:38:27.082Z,2.13
2017-12-04T14:40:55.309Z,3.00
2017-12-04T14:43:22.790Z,2.27
2017-12-04T14:45:50.257Z,4.33
2017-12-04T14:48:17.729Z,2.93
2017-12-04T14:50:45.954Z,3.00
2017-12-04T14:53:13.415Z,2.70
2017-12-04T14:55:40.883Z,2.40
2017-12-04T15:06:48.126Z,3.90
2017-12-04T15:09:15.595Z,3.00
2017-12-04T15:11:43.062Z,2.40
2017-12-04T15:14:10.530Z,2.80
2017-12-04T15:16:38.775Z,3.10
2017-12-04T15:19:06.248Z,5.13
2017-12-04T15:21:33.711Z,3.43
2017-12-04T15:24:01.960Z,3.37
2017-12-04T15:26:29.432Z,2.87
2017-12-04T15:28:57.701Z,4.30
2017-12-04T15:31:25.176Z,2.80
2017-12-04T15:33:52.672Z,2.60
2017-12-04T15:36:20.923Z,1.90
2017-12-04T15:38:48.395Z,2.33
2017-12-04T15:41:16.685Z,2.50
2017-12-04T15:43:44.099Z,2.03
2017-12-04T15:46:11.566Z,3.03
2017-12-04T15:48:39.036Z,2.13
2017-12-04T15:51:06.516Z,2.43
2017-12-04T15:53:34.779Z,2.80
2017-12-04T15:56:03.024Z,3.30
2017-12-04T15:58:30.491Z,3.33
2017-12-04T16:00:57.960Z,2.37
2017-12-04T16:03:25.428Z,2.87
2017-12-04T16:05:53.670Z,2.60
2017-12-04T16:08:21.127Z,3.23
2017-12-04T16:10:48.604Z,1.63
2017-12-04T16:13:16.075Z,2.27
2017-12-04T16:15:44.325Z,1.80
2017-12-04T16:18:11.792Z,1.80
2017-12-04T16:20:39.276Z,1.33
2017-12-04T16:23:07.507Z,2.53
2017-12-04T16:25:34.987Z,2.30
2017-12-04T16:28:02.484Z,2.20
2017-12-04T16:30:29.956Z,2.40
2017-12-04T16:32:57.434Z,2.80
2017-12-04T16:35:24.890Z,3.20
2017-12-04T16:37:53.128Z,2.70
2017-12-04T16:40:21.379Z,2.63
2017-12-04T16:42:48.850Z,2.07
2017-12-04T16:45:17.083Z,2.70
2017-12-04T16:47:44.560Z,2.50
2017-12-04T16:50:12.032Z,1.80
2017-12-04T16:52:39.513Z,2.60
2017-12-04T16:55:07.743Z,2.40
2017-12-04T16:57:35.228Z,2.77
2017-12-04T17:00:03.478Z,2.63
2017-12-04T17:02:30.955Z,3.33
2017-12-04T17:04:58.430Z,2.73
2017-12-04T17:07:26.672Z,2.43
2017-12-04T17:09:54.126Z,3.33
2017-12-04T17:12:21.598Z,2.50
2017-12-04T17:14:49.328Z,2.50
2017-12-04T17:17:16.808Z,3.10
2017-12-04T17:19:44.283Z,3.27
2017-12-04T17:22:11.754Z,2.77
2017-12-04T17:24:39.983Z,3.43
2017-12-04T17:27:07.475Z,4.03
2017-12-04T17:29:34.946Z,3.00
2017-12-04T17:32:02.424Z,4.13
2017-12-04T17:34:29.909Z,3.03
2017-12-04T17:36:57.375Z,2.30
2017-12-04T17:39:24.854Z,2.60
2017-12-04T17:41:52.311Z,2.57
2017-12-04T17:44:19.793Z,3.10
2017-12-04T17:46:47.275Z,3.00
2017-12-04T17:49:14.747Z,3.00
2017-12-04T17:51:42.215Z,4.07
2017-12-04T17:54:09.711Z,3.10
2017-12-04T17:56:37.171Z,3.10
2017-12-04T17:59:04.650Z,4.57
2017-12-04T18:01:32.888Z,3.83
2017-12-04T18:04:00.358Z,3.40
2017-12-04T18:06:27.823Z,3.70
2017-12-04T18:08:55.307Z,3.30
2017-12-04T18:11:23.534Z,2.97
2017-12-04T18:13:51.049Z,4.13
2017-12-04T18:16:19.282Z,3.07
2017-12-04T18:18:46.759Z,3.03
2017-12-04T18:21:14.219Z,2.43
2017-12-04T18:23:41.931Z,2.83
2017-12-04T18:26:09.399Z,3.13
2017-12-04T18:28:36.886Z,3.33
2017-12-04T18:31:04.343Z,4.10
2017-12-04T18:33:31.842Z,3.40
2017-12-04T18:35:59.338Z,3.20
2017-12-04T18:38:26.810Z,3.67
2017-12-04T18:40:54.284Z,3.33
2017-12-04T18:43:21.760Z,2.77
2017-12-04T18:45:50.002Z,3.30
2017-12-04T18:48:17.488Z,2.90
2017-12-04T18:50:45.752Z,2.57
2017-12-04T18:53:13.228Z,2.73
2017-12-04T18:55:40.699Z,3.73
2017-12-04T18:58:08.928Z,2.50
2017-12-04T19:00:36.407Z,2.70
2017-12-04T19:03:03.878Z,2.80
2017-12-04T19:05:32.128Z,2.90
2017-12-04T19:07:59.631Z,2.17
2017-12-04T19:10:27.875Z,2.10
2017-12-04T19:12:55.344Z,3.37
2017-12-04T19:15:22.806Z,2.67
2017-12-04T19:17:51.036Z,2.80
2017-12-04T19:20:18.516Z,2.33
2017-12-04T19:22:45.992Z,3.40
2017-12-04T19:25:13.464Z,2.97
2017-12-04T19:27:41.686Z,2.50
2017-12-04T19:30:09.177Z,4.73
2017-12-04T19:32:37.027Z,2.57
2017-12-04T19:35:05.285Z,2.90
2017-12-04T19:37:32.756Z,3.97
2017-12-04T19:40:00.235Z,2.77
2017-12-04T19:42:27.723Z,3.47
2017-12-04T19:44:55.972Z,2.47
2017-12-04T19:47:23.446Z,2.67
2017-12-04T19:49:51.687Z,2.07
2017-12-04T19:52:19.159Z,2.93
2017-12-04T19:54:46.640Z,2.73
2017-12-04T19:57:14.871Z,3.23
2017-12-04T19:59:42.376Z,3.17
2017-12-04T20:02:10.599Z,2.47
2017-12-04T20:04:38.095Z,2.93
2017-12-04T20:07:05.571Z,2.60
2017-12-04T20:09:33.828Z,3.07
2017-12-04T20:12:01.298Z,3.17
2017-12-04T20:14:29.541Z,3.27
2017-12-04T20:16:57.015Z,3.13
2017-12-04T20:19:24.484Z,2.30
2017-12-04T20:21:53.470Z,2.40
2017-12-04T20:24:20.932Z,3.60
2017-12-04T20:26:48.415Z,2.87
2017-12-04T20:29:16.643Z,2.83
2017-12-04T20:31:44.168Z,2.40
2017-12-04T20:34:11.575Z,2.37
2017-12-04T20:36:39.052Z,2.40
2017-12-04T20:39:07.286Z,2.40
2017-12-04T20:41:34.763Z,1.80
2017-12-04T20:44:02.227Z,2.20
2017-12-04T20:46:29.722Z,2.80
2017-12-04T20:48:57.182Z,2.70
2017-12-04T20:51:24.655Z,2.73
2017-12-04T20:53:52.130Z,2.73
2017-12-04T20:56:19.607Z,2.60
2017-12-04T20:58:47.079Z,3.53
2017-12-04T21:01:14.551Z,2.63
2017-12-04T21:03:42.004Z,2.80
2017-12-04T21:06:10.243Z,2.20
2017-12-04T21:08:49.578Z,2.50
2017-12-04T21:11:29.007Z,2.97
2017-12-04T21:14:08.368Z,2.20
2017-12-04T21:16:47.903Z,2.93
2017-12-04T21:19:15.385Z,2.57
2017-12-04T21:21:42.855Z,2.83
2017-12-04T21:24:11.086Z,3.10
2017-12-04T21:26:38.575Z,2.63
2017-12-04T21:29:06.034Z,2.90
2017-12-04T21:31:33.505Z,2.40
2017-12-04T21:34:01.739Z,3.10
2017-12-04T21:36:29.282Z,3.73
2017-12-04T21:38:56.775Z,3.27
2017-12-04T21:41:24.235Z,3.40
2017-12-04T21:43:51.731Z,3.90
2017-12-04T21:46:19.951Z,3.33
2017-12-04T21:48:47.429Z,4.53
2017-12-04T21:51:14.911Z,4.17
2017-12-04T21:53:43.154Z,3.40
2017-12-04T21:56:10.611Z,3.90
2017-12-04T21:58:38.111Z,4.23
2017-12-04T22:01:06.335Z,4.83
2017-12-04T22:03:33.826Z,4.50
2017-12-04T22:06:01.287Z,4.90
2017-12-04T22:08:29.539Z,5.13
2017-12-04T22:10:57.011Z,5.00
2017-12-04T22:13:24.484Z,5.50
2017-12-04T22:15:52.725Z,4.67
2017-12-04T22:18:20.963Z,4.30
2017-12-04T22:20:48.442Z,4.00
2017-12-04T22:23:15.938Z,4.63
2017-12-04T22:25:43.420Z,5.07
2017-12-04T22:28:11.634Z,4.60
2017-12-04T22:30:39.124Z,4.13
2017-12-04T22:33:06.604Z,4.40
2017-12-04T22:35:35.164Z,4.90
2017-12-04T22:38:02.668Z,4.43
2017-12-04T22:40:30.148Z,4.50
2017-12-04T22:42:57.607Z,4.47
2017-12-04T22:45:25.098Z,4.23
2017-12-04T22:47:52.568Z,4.60
2017-12-04T22:50:20.035Z,5.07
2017-12-04T22:52:48.272Z,5.97
2017-12-04T22:55:15.743Z,5.67
2017-12-04T22:57:43.206Z,5.03
2017-12-04T23:00:10.700Z,6.57
2017-12-04T23:02:38.928Z,5.43
2017-12-04T23:05:06.418Z,6.10
2017-12-04T23:07:33.876Z,6.70
2017-12-04T23:10:01.343Z,6.43
2017-12-04T23:12:29.575Z,7.10
2017-12-04T23:14:57.042Z,4.97
2017-12-04T23:17:24.523Z,6.13
2017-12-04T23:19:51.986Z,6.10
2017-12-04T23:22:19.456Z,6.50
2017-12-04T23:24:47.707Z,6.47
2017-12-04T23:27:15.187Z,4.90
2017-12-04T23:29:43.418Z,6.43
2017-12-04T23:32:10.883Z,6.53
2017-12-04T23:34:38.371Z,6.97
2017-12-04T23:37:05.822Z,5.90
2017-12-04T23:39:33.286Z,5.90
2017-12-04T23:42:00.762Z,6.23
2017-12-04T23:44:29.020Z,5.17
2017-12-04T23:46:56.491Z,5.90
2017-12-04T23:49:24.759Z,5.30
2017-12-04T23:51:52.222Z,4.70
2017-12-04T23:54:22.112Z,5.20
2017-12-04T23:56:49.587Z,5.37
2017-12-04T23:59:17.051Z,5.43
